createdAt,value
2018-03-23T00:02:00.152Z,127682.19
2018-03-23T00:04:27.915Z,127682.19
2018-03-23T00:06:55.598Z,127682.19
2018-03-23T00:09:23.329Z,102262.34
2018-03-23T00:11:51.013Z,102237.27
2018-03-23T00:14:18.727Z,102231.11
2018-03-23T00:16:46.429Z,102222.03
2018-03-23T00:19:14.179Z,102208.73
2018-03-23T00:21:41.862Z,102190.61
2018-03-23T00:24:09.577Z,102170.42
2018-03-23T00:26:37.331Z,102161.98
2018-03-23T00:29:05.038Z,102140.52
2018-03-23T00:31:32.706Z,102130.02
2018-03-23T00:34:00.416Z,102115.77
2018-03-23T00:36:28.698Z,102112.39
2018-03-23T00:38:56.434Z,102107.33
2018-03-23T00:41:24.118Z,102092.09
2018-03-23T00:43:51.788Z,102080.05
2018-03-23T00:46:19.513Z,102077.70
2018-03-23T00:48:47.195Z,102066.63
2018-03-23T00:51:14.934Z,102059.18
2018-03-23T00:53:42.623Z,102057.64
2018-03-23T00:56:10.332Z,102045.25
2018-03-23T00:58:38.019Z,102040.76
2018-03-23T01:01:05.761Z,102036.30
2018-03-23T01:03:33.441Z,102036.58
2018-03-23T01:06:01.161Z,102021.99
2018-03-23T01:08:28.866Z,102005.80
2018-03-23T01:10:56.603Z,102002.73
2018-03-23T01:13:24.299Z,101990.15
2018-03-23T01:15:52.051Z,101976.95
2018-03-23T01:18:19.732Z,101962.77
2018-03-23T01:20:47.511Z,101946.27
2018-03-23T01:23:15.223Z,101954.82
2018-03-23T01:25:42.950Z,101956.77
2018-03-23T01:28:10.633Z,101952.63
2018-03-23T01:30:38.355Z,101946.08
2018-03-23T01:33:06.045Z,101934.92
2018-03-23T01:35:33.759Z,101931.62
2018-03-23T01:38:01.391Z,101927.75
2018-03-23T01:40:29.048Z,101930.09
2018-03-23T01:42:56.664Z,101923.53
2018-03-23T01:45:24.359Z,101932.66
2018-03-23T01:47:52.012Z,101919.23
2018-03-23T01:50:19.719Z,101906.77
2018-03-23T01:52:47.361Z,101911.92
2018-03-23T01:55:15.073Z,101903.21
2018-03-23T01:57:42.724Z,101889.83
2018-03-23T02:00:10.411Z,101875.91
2018-03-23T02:02:38.054Z,101874.30
2018-03-23T02:05:05.748Z,101870.66
2018-03-23T02:07:33.400Z,101856.16
2018-03-23T02:10:01.111Z,101850.95
2018-03-23T02:12:28.742Z,101857.13
2018-03-23T02:14:56.412Z,101847.53
2018-03-23T02:17:24.072Z,101848.33
2018-03-23T02:19:51.755Z,101850.70
2018-03-23T02:22:19.423Z,101882.81
2018-03-23T02:24:47.103Z,101881.55
2018-03-23T02:27:14.851Z,101860.15
2018-03-23T02:29:42.552Z,101851.49
2018-03-23T02:32:10.289Z,101846.94
2018-03-23T02:34:37.978Z,101838.34
2018-03-23T02:37:05.711Z,101841.38
2018-03-23T02:39:33.388Z,101830.84
2018-03-23T02:42:01.137Z,101828.77
2018-03-23T02:44:28.857Z,101815.55
2018-03-23T02:46:56.560Z,101812.11
2018-03-23T02:49:24.265Z,101807.66
2018-03-23T02:51:51.995Z,101794.10
2018-03-23T02:54:19.682Z,101789.08
2018-03-23T02:56:47.389Z,101790.34
2018-03-23T02:59:15.050Z,101783.56
2018-03-23T03:01:42.762Z,101783.95
2018-03-23T03:04:10.456Z,101782.71
2018-03-23T03:06:38.206Z,101775.08
2018-03-23T03:09:05.889Z,101770.72
2018-03-23T03:11:33.620Z,101764.88
2018-03-23T03:14:01.306Z,101760.88
2018-03-23T03:16:29.022Z,101757.84
2018-03-23T03:18:56.780Z,101739.84
2018-03-23T03:21:24.531Z,101744.22
2018-03-23T03:23:52.213Z,101737.50
2018-03-23T03:26:19.961Z,101733.81
2018-03-23T03:28:47.651Z,101723.98
2018-03-23T03:31:15.389Z,101713.55
2018-03-23T03:33:43.111Z,101707.16
2018-03-23T03:36:10.856Z,101705.64
2018-03-23T03:38:38.551Z,101706.36
2018-03-23T03:41:06.275Z,101696.99
2018-03-23T03:43:33.968Z,101698.22
2018-03-23T03:46:01.698Z,101693.38
2018-03-23T03:48:29.381Z,101694.06
2018-03-23T03:50:57.113Z,101691.50
2018-03-23T03:53:24.803Z,101684.09
2018-03-23T03:55:52.526Z,101675.16
2018-03-23T03:58:20.219Z,101674.05
2018-03-23T04:00:47.912Z,101662.59
2018-03-23T04:03:15.653Z,101657.09
2018-03-23T04:05:43.391Z,101684.53
2018-03-23T04:08:11.125Z,101679.13
2018-03-23T04:10:38.801Z,101675.42
2018-03-23T04:13:06.526Z,101680.08
2018-03-23T04:15:34.238Z,101679.53
2018-03-23T04:18:01.973Z,101688.41
2018-03-23T04:20:29.701Z,101683.20
2018-03-23T04:22:57.447Z,101681.89
2018-03-23T04:25:25.149Z,101674.45
2018-03-23T04:27:52.930Z,101669.65
2018-03-23T04:30:20.662Z,101657.20
2018-03-23T04:32:48.421Z,101674.27
2018-03-23T04:35:16.131Z,101665.97
2018-03-23T04:37:43.898Z,101655.02
2018-03-23T04:40:11.623Z,101648.84
2018-03-23T04:42:39.378Z,101651.42
2018-03-23T04:45:07.096Z,101643.34
2018-03-23T04:47:34.831Z,101646.80
2018-03-23T04:50:02.586Z,101642.19
2018-03-23T04:52:30.320Z,101640.12
2018-03-23T04:54:58.004Z,101631.42
2018-03-23T04:57:25.763Z,101628.88
2018-03-23T04:59:53.485Z,101629.30
2018-03-23T05:02:21.207Z,101607.14
2018-03-23T05:04:48.944Z,101628.09
2018-03-23T05:07:16.731Z,101618.59
2018-03-23T05:09:44.451Z,101615.20
2018-03-23T05:12:12.230Z,101610.88
2018-03-23T05:14:39.949Z,101616.60
2018-03-23T05:17:07.694Z,101609.02
2018-03-23T05:19:35.469Z,101610.49
2018-03-23T05:22:03.222Z,101613.52
2018-03-23T05:24:30.926Z,101611.45
2018-03-23T05:26:58.698Z,101607.86
2018-03-23T05:29:26.415Z,101603.88
2018-03-23T05:31:55.875Z,101602.83
2018-03-23T05:34:23.603Z,101600.06
2018-03-23T05:36:51.353Z,101611.86
2018-03-23T05:39:19.060Z,101608.45
2018-03-23T05:41:46.850Z,101607.38
2018-03-23T05:44:14.577Z,101602.94
2018-03-23T05:46:42.296Z,101618.09
2018-03-23T05:49:10.063Z,101624.00
2018-03-23T05:51:37.783Z,101625.44
2018-03-23T05:54:05.547Z,101622.73
2018-03-23T05:56:33.286Z,101626.97
2018-03-23T05:59:01.083Z,101649.20
2018-03-23T06:01:28.786Z,101646.63
2018-03-23T06:03:56.554Z,101646.55
2018-03-23T06:06:24.319Z,101642.34
2018-03-23T06:08:52.050Z,101641.03
2018-03-23T06:11:19.839Z,101656.00
2018-03-23T06:13:47.586Z,101660.37
2018-03-23T06:16:15.340Z,101658.50
2018-03-23T06:18:43.177Z,101662.36
2018-03-23T06:21:10.879Z,101652.75
2018-03-23T06:23:38.614Z,101658.95
2018-03-23T06:26:06.326Z,101662.66
2018-03-23T06:28:34.072Z,101657.72
2018-03-23T06:31:01.771Z,101654.08
2018-03-23T06:33:29.535Z,101646.07
2018-03-23T06:35:57.262Z,101676.32
2018-03-23T06:38:25.050Z,101683.37
2018-03-23T06:40:52.741Z,101680.49
2018-03-23T06:43:20.511Z,101680.34
2018-03-23T06:45:48.218Z,101676.51
2018-03-23T06:48:16.007Z,101705.23
2018-03-23T06:50:43.707Z,101708.45
2018-03-23T06:53:11.460Z,101702.13
2018-03-23T06:55:39.182Z,101710.02
2018-03-23T06:58:06.938Z,101708.50
2018-03-23T07:00:34.636Z,101708.45
2018-03-23T07:03:02.391Z,101707.61
2018-03-23T07:05:30.117Z,101707.86
2018-03-23T07:07:57.870Z,101701.80
2018-03-23T07:10:25.631Z,101699.40
2018-03-23T07:12:53.382Z,101697.22
2018-03-23T07:15:21.127Z,101696.29
2018-03-23T07:17:48.895Z,101690.73
2018-03-23T07:20:16.659Z,101689.16
2018-03-23T07:22:44.417Z,101684.02
2018-03-23T07:25:12.125Z,101675.62
2018-03-23T07:27:39.846Z,101691.35
2018-03-23T07:30:07.586Z,101686.66
2018-03-23T07:32:35.309Z,101684.37
2018-03-23T07:35:03.130Z,101682.42
2018-03-23T07:37:30.863Z,101679.51
2018-03-23T07:39:58.678Z,101682.51
2018-03-23T07:42:26.393Z,101672.84
2018-03-23T07:44:54.143Z,101678.72
2018-03-23T07:47:21.858Z,101675.97
2018-03-23T07:49:49.737Z,101682.74
2018-03-23T07:52:17.439Z,101685.14
2018-03-23T07:54:45.211Z,101675.11
2018-03-23T07:57:12.894Z,101682.80
2018-03-23T07:59:40.655Z,101686.50
2018-03-23T08:02:08.375Z,101676.75
2018-03-23T08:04:36.119Z,101668.67
2018-03-23T08:07:03.877Z,101660.81
2018-03-23T08:09:31.602Z,101678.66
2018-03-23T08:11:59.324Z,101667.69
2018-03-23T08:14:27.107Z,101674.08
2018-03-23T08:16:54.887Z,101670.80
2018-03-23T08:19:22.674Z,101674.20
2018-03-23T08:21:50.431Z,101674.37
2018-03-23T08:24:18.226Z,101664.55
2018-03-23T08:26:45.922Z,101674.11
2018-03-23T08:29:13.693Z,101662.20
2018-03-23T08:31:41.396Z,101671.20
2018-03-23T08:34:09.174Z,101662.02
2018-03-23T08:36:36.898Z,101660.66
2018-03-23T08:39:04.666Z,101655.81
2018-03-23T08:41:32.400Z,101646.05
2018-03-23T08:44:00.174Z,101647.14
2018-03-23T08:46:27.894Z,101655.20
2018-03-23T08:48:55.659Z,101665.86
2018-03-23T08:51:23.428Z,101650.84
2018-03-23T08:53:51.192Z,101648.77
2018-03-23T08:56:18.916Z,101641.45
2018-03-23T08:58:46.661Z,101640.50
2018-03-23T09:01:14.391Z,101640.40
2018-03-23T09:03:42.151Z,101640.00
2018-03-23T09:06:09.868Z,101643.45
2018-03-23T09:08:37.609Z,101651.23
2018-03-23T09:11:05.353Z,101647.20
2018-03-23T09:13:33.078Z,101641.41
2018-03-23T09:16:00.836Z,101641.80
2018-03-23T09:18:28.560Z,101637.25
2018-03-23T09:20:56.362Z,101627.13
2018-03-23T09:23:24.086Z,101622.39
2018-03-23T09:25:51.832Z,101619.08
2018-03-23T09:28:20.371Z,101613.81
2018-03-23T09:30:48.125Z,101616.41
2018-03-23T09:33:15.862Z,101638.16
2018-03-23T09:35:43.671Z,101630.27
2018-03-23T09:38:11.348Z,101625.95
2018-03-23T09:40:39.066Z,101632.15
2018-03-23T09:43:06.794Z,101624.77
2018-03-23T09:45:34.581Z,101624.59
2018-03-23T09:48:02.282Z,101623.34
2018-03-23T09:50:30.017Z,101616.22
2018-03-23T09:52:57.730Z,101604.97
2018-03-23T09:55:25.603Z,101610.65
2018-03-23T09:57:53.354Z,101596.66
2018-03-23T10:00:21.111Z,101594.34
2018-03-23T10:02:48.831Z,101591.62
2018-03-23T10:05:16.594Z,101576.72
2018-03-23T10:07:44.282Z,101569.23
2018-03-23T10:10:12.055Z,101562.14
2018-03-23T10:12:39.750Z,101551.64
2018-03-23T10:15:07.517Z,101550.78
2018-03-23T10:17:35.247Z,101542.64
2018-03-23T10:20:03.130Z,101525.25
2018-03-23T10:22:30.814Z,101518.11
2018-03-23T10:24:58.587Z,101514.63
2018-03-23T10:27:26.316Z,101514.28
2018-03-23T10:29:54.046Z,101514.97
2018-03-23T10:32:21.767Z,101502.31
2018-03-23T10:34:49.533Z,101499.85
2018-03-23T10:37:17.274Z,101499.36
2018-03-23T10:39:45.059Z,101484.75
2018-03-23T10:42:12.785Z,101487.79
2018-03-23T10:44:40.570Z,101476.81
2018-03-23T10:47:08.292Z,101474.06
2018-03-23T10:49:36.037Z,101472.11
2018-03-23T10:52:03.813Z,101460.57
2018-03-23T10:54:31.525Z,101453.89
2018-03-23T10:56:59.338Z,101453.05
2018-03-23T10:59:27.057Z,101456.31
2018-03-23T11:02:00.492Z,101446.00
2018-03-23T11:04:28.272Z,101451.71
2018-03-23T11:06:56.053Z,101452.19
2018-03-23T11:09:23.770Z,101447.72
2018-03-23T11:11:51.523Z,101445.20
2018-03-23T11:14:19.261Z,101442.03
2018-03-23T11:16:47.063Z,101435.80
2018-03-23T11:19:14.823Z,101432.31
2018-03-23T11:21:42.593Z,101436.03
2018-03-23T11:24:10.310Z,101426.89
2018-03-23T11:26:38.099Z,101433.00
2018-03-23T11:29:05.809Z,101424.27
2018-03-23T11:31:33.591Z,101416.06
2018-03-23T11:34:01.311Z,101415.22
2018-03-23T11:36:29.066Z,101418.71
2018-03-23T11:38:56.774Z,101411.91
2018-03-23T11:41:24.536Z,101407.54
2018-03-23T11:43:52.243Z,101411.05
2018-03-23T11:46:19.982Z,101405.16
2018-03-23T11:48:47.683Z,101402.42
2018-03-23T11:51:15.426Z,101406.02
2018-03-23T11:53:43.152Z,101395.97
2018-03-23T11:56:10.923Z,101397.01
2018-03-23T11:58:38.662Z,101398.25
2018-03-23T12:01:06.443Z,101391.94
2018-03-23T12:03:34.189Z,101389.27
2018-03-23T12:06:01.976Z,101383.33
2018-03-23T12:08:29.709Z,101379.66
2018-03-23T12:10:57.470Z,101380.44
2018-03-23T12:13:25.183Z,101374.00
2018-03-23T12:15:52.958Z,101370.94
2018-03-23T12:18:20.683Z,101365.90
2018-03-23T12:20:48.495Z,101367.26
2018-03-23T12:23:16.208Z,101359.33
2018-03-23T12:25:43.936Z,101360.20
2018-03-23T12:28:11.617Z,101351.09
2018-03-23T12:30:39.394Z,101349.60
2018-03-23T12:33:07.095Z,101345.44
2018-03-23T12:35:34.816Z,101342.72
2018-03-23T12:38:02.565Z,101340.70
2018-03-23T12:40:30.329Z,101336.61
2018-03-23T12:42:58.049Z,101340.08
2018-03-23T12:45:25.777Z,101323.64
2018-03-23T12:47:53.559Z,101329.65
2018-03-23T12:50:21.311Z,101320.41
2018-03-23T12:52:49.065Z,101322.94
2018-03-23T12:55:16.803Z,101320.52
2018-03-23T12:57:44.585Z,101316.30
2018-03-23T13:00:12.319Z,101304.33
2018-03-23T13:02:40.071Z,101307.00
2018-03-23T13:05:07.758Z,101307.22
2018-03-23T13:07:35.517Z,101303.52
2018-03-23T13:10:03.262Z,101295.00
2018-03-23T13:12:31.072Z,101292.58
2018-03-23T13:14:58.764Z,101284.75
2018-03-23T13:17:26.501Z,101282.26
2018-03-23T13:19:54.243Z,101275.98
2018-03-23T13:22:22.014Z,101278.98
2018-03-23T13:24:49.716Z,101274.58
2018-03-23T13:27:17.418Z,101276.87
2018-03-23T13:29:45.135Z,101277.40
2018-03-23T13:32:12.900Z,101269.94
2018-03-23T13:34:40.626Z,101270.75
2018-03-23T13:37:08.380Z,101268.53
2018-03-23T13:39:36.070Z,101260.98
2018-03-23T13:42:03.839Z,101259.01
2018-03-23T13:44:31.564Z,101253.31
2018-03-23T13:46:59.297Z,101257.04
2018-03-23T13:49:26.998Z,101254.47
2018-03-23T13:51:54.746Z,101246.91
2018-03-23T13:54:22.463Z,101248.71
2018-03-23T13:56:50.198Z,101240.44
2018-03-23T13:59:23.550Z,101235.30
2018-03-23T14:01:51.286Z,101232.02
2018-03-23T14:04:19.010Z,101228.27
2018-03-23T14:06:46.776Z,101226.47
2018-03-23T14:09:14.506Z,101224.72
2018-03-23T14:11:42.306Z,101224.45
2018-03-23T14:14:10.028Z,101219.86
2018-03-23T14:16:37.736Z,101215.38
2018-03-23T14:19:05.531Z,101212.49
2018-03-23T14:21:33.254Z,101208.87
2018-03-23T14:24:01.000Z,101205.45
2018-03-23T14:26:28.703Z,101205.94
2018-03-23T14:28:56.520Z,101207.39
2018-03-23T14:31:24.199Z,101206.86
2018-03-23T14:33:51.950Z,101207.90
2018-03-23T14:36:19.682Z,101203.90
2018-03-23T14:38:47.475Z,101209.95
2018-03-23T14:41:15.202Z,101201.82
2018-03-23T14:43:42.963Z,101199.43
2018-03-23T14:46:10.735Z,101200.13
2018-03-23T14:48:38.476Z,101195.63
2018-03-23T14:51:06.194Z,101193.05
2018-03-23T14:53:33.970Z,101194.91
2018-03-23T14:56:01.650Z,101188.58
2018-03-23T15:01:28.718Z,101187.05
2018-03-23T15:03:56.502Z,101177.27
2018-03-23T15:06:24.257Z,101177.78
2018-03-23T15:08:52.003Z,101178.28
2018-03-23T15:11:19.756Z,101177.82
2018-03-23T15:13:47.503Z,101182.34
2018-03-23T15:16:15.247Z,101176.25
2018-03-23T15:18:42.977Z,101166.40
2018-03-23T15:21:10.750Z,101163.81
2018-03-23T15:23:38.487Z,101171.53
2018-03-23T15:26:06.219Z,101173.61
2018-03-23T15:28:33.969Z,101179.46
2018-03-23T15:31:01.639Z,101170.34
2018-03-23T15:33:29.408Z,101173.93
2018-03-23T15:35:57.138Z,101167.41
2018-03-23T15:38:24.906Z,101163.30
2018-03-23T15:40:52.649Z,101163.75
2018-03-23T15:43:20.400Z,101159.30
2018-03-23T15:45:48.248Z,101162.45
2018-03-23T15:48:16.061Z,101154.53
2018-03-23T15:50:43.789Z,101159.39
2018-03-23T15:53:11.555Z,101155.02
2018-03-23T15:55:39.242Z,101154.11
2018-03-23T15:58:07.042Z,101159.75
2018-03-23T16:00:34.751Z,101151.07
2018-03-23T16:03:02.502Z,101154.20
2018-03-23T16:05:30.241Z,101159.37
2018-03-23T16:07:58.001Z,101161.82
2018-03-23T16:10:25.726Z,101166.39
2018-03-23T16:12:53.445Z,101167.83
2018-03-23T16:15:21.166Z,101167.43
2018-03-23T16:17:48.966Z,101162.48
2018-03-23T16:20:16.739Z,101162.13
2018-03-23T16:22:44.426Z,101167.84
2018-03-23T16:25:12.205Z,101170.00
2018-03-23T16:27:39.909Z,101173.22
2018-03-23T16:30:07.660Z,101169.56
2018-03-23T16:32:35.355Z,101172.89
2018-03-23T16:35:03.154Z,101168.35
2018-03-23T16:37:30.887Z,101169.68
2018-03-23T16:39:58.660Z,101171.95
2018-03-23T16:42:26.400Z,101172.81
2018-03-23T16:44:54.201Z,101172.38
2018-03-23T16:47:21.916Z,101176.57
2018-03-23T16:49:49.678Z,101167.44
2018-03-23T16:52:17.451Z,101169.55
2018-03-23T16:54:45.244Z,101170.25
2018-03-23T16:57:12.946Z,101168.20
2018-03-23T16:59:40.700Z,101164.33
2018-03-23T17:02:08.446Z,101169.69
2018-03-23T17:04:36.236Z,101169.66
2018-03-23T17:07:04.005Z,101172.84
2018-03-23T17:09:31.767Z,101171.50
2018-03-23T17:11:59.502Z,101172.09
2018-03-23T17:14:27.250Z,101165.47
2018-03-23T17:16:54.981Z,101172.73
2018-03-23T17:19:22.774Z,101167.34
2018-03-23T17:21:50.518Z,101164.23
2018-03-23T17:24:18.255Z,101180.01
2018-03-23T17:26:45.998Z,101180.45
2018-03-23T17:29:13.748Z,101182.77
2018-03-23T17:31:41.490Z,101188.04
2018-03-23T17:34:09.269Z,101182.09
2018-03-23T17:36:37.003Z,101187.06
2018-03-23T17:39:04.769Z,101186.52
2018-03-23T17:41:32.503Z,101195.05
2018-03-23T17:44:00.266Z,101197.53
2018-03-23T17:46:27.983Z,101204.72
2018-03-23T17:48:55.773Z,101210.48
2018-03-23T17:51:23.523Z,101216.38
2018-03-23T17:53:51.276Z,101211.83
2018-03-23T17:56:18.994Z,101233.89
2018-03-23T17:58:46.759Z,101243.67
2018-03-23T18:01:14.486Z,101245.56
2018-03-23T18:03:42.191Z,101253.98
2018-03-23T18:06:09.959Z,101259.02
2018-03-23T18:08:37.663Z,101265.16
2018-03-23T18:11:05.426Z,101265.66
2018-03-23T18:13:33.182Z,101273.73
2018-03-23T18:16:00.925Z,101270.30
2018-03-23T18:18:28.601Z,101272.59
2018-03-23T18:20:56.393Z,101276.69
2018-03-23T18:23:24.089Z,101276.50
2018-03-23T18:25:51.810Z,101288.25
2018-03-23T18:28:19.523Z,101305.32
2018-03-23T18:30:47.298Z,101300.75
2018-03-23T18:33:15.030Z,101351.16
2018-03-23T18:35:42.799Z,101350.09
2018-03-23T18:38:10.520Z,101363.58
2018-03-23T18:40:38.311Z,101363.92
2018-03-23T18:43:06.017Z,101367.81
2018-03-23T18:45:33.795Z,101362.25
2018-03-23T18:48:01.503Z,101356.50
2018-03-23T18:50:29.267Z,101369.39
2018-03-23T18:52:57.003Z,101372.56
2018-03-23T18:55:24.767Z,101367.47
2018-03-23T18:57:52.483Z,101369.60
2018-03-23T19:00:20.274Z,101375.27
2018-03-23T19:02:47.996Z,101367.54
2018-03-23T19:05:15.767Z,101374.16
2018-03-23T19:07:43.493Z,101377.92
2018-03-23T19:10:11.275Z,101386.24
2018-03-23T19:12:39.000Z,101388.66
2018-03-23T19:15:06.784Z,101401.52
2018-03-23T19:17:34.535Z,101396.73
2018-03-23T19:20:02.214Z,101398.81
2018-03-23T19:22:29.926Z,101397.31
2018-03-23T19:24:57.689Z,101383.98
2018-03-23T19:27:25.415Z,101385.52
2018-03-23T19:29:53.151Z,101376.91
2018-03-23T19:32:20.866Z,101363.64
2018-03-23T19:34:48.642Z,101358.64
2018-03-23T19:37:16.346Z,101347.02
2018-03-23T19:39:44.095Z,101336.50
2018-03-23T19:42:11.807Z,101320.22
2018-03-23T19:44:39.535Z,101320.02
2018-03-23T19:47:07.281Z,101312.69
2018-03-23T19:49:34.999Z,101305.09
2018-03-23T19:52:02.733Z,101296.38
2018-03-23T19:54:30.434Z,101297.27
2018-03-23T19:56:58.176Z,101290.97
2018-03-23T19:59:25.901Z,101286.25
2018-03-23T20:01:53.658Z,101283.08
2018-03-23T20:04:21.403Z,101278.49
2018-03-23T20:06:49.159Z,101269.78
2018-03-23T20:09:16.866Z,101265.66
2018-03-23T20:11:44.581Z,101277.14
2018-03-23T20:14:12.308Z,101276.58
2018-03-23T20:16:40.082Z,101275.95
2018-03-23T20:19:07.845Z,101273.41
2018-03-23T20:21:35.586Z,101267.92
2018-03-23T20:24:08.953Z,101270.17
2018-03-23T20:26:36.690Z,101262.48
2018-03-23T20:29:04.423Z,101269.97
2018-03-23T20:31:37.727Z,101268.50
2018-03-23T20:34:05.418Z,101258.33
2018-03-23T20:36:33.199Z,101258.16
2018-03-23T20:39:00.882Z,101254.15
2018-03-23T20:41:28.630Z,101247.48
2018-03-23T20:43:56.334Z,101241.69
2018-03-23T20:46:24.082Z,101232.12
2018-03-23T20:48:51.788Z,101241.36
2018-03-23T20:51:19.538Z,101235.59
2018-03-23T20:53:47.243Z,101238.51
2018-03-23T20:56:15.001Z,101235.33
2018-03-23T20:58:42.715Z,101232.03
2018-03-23T21:01:10.522Z,101224.14
2018-03-23T21:03:38.254Z,101223.32
2018-03-23T21:06:06.017Z,101223.45
2018-03-23T21:08:33.710Z,101218.48
2018-03-23T21:11:01.434Z,101225.93
2018-03-23T21:13:29.158Z,101225.93
2018-03-23T21:15:56.879Z,101227.98
2018-03-23T21:18:24.583Z,101218.90
2018-03-23T21:20:52.345Z,101219.59
2018-03-23T21:23:20.024Z,101220.16
2018-03-23T21:25:47.754Z,101226.39
2018-03-23T21:28:15.424Z,101225.02
2018-03-23T21:30:43.116Z,101223.78
2018-03-23T21:33:10.866Z,101217.02
2018-03-23T21:35:38.565Z,101221.95
2018-03-23T21:38:06.334Z,101220.58
2018-03-23T21:40:34.046Z,101218.65
2018-03-23T21:43:01.777Z,101215.92
2018-03-23T21:45:29.485Z,101217.86
2018-03-23T21:47:57.251Z,101221.98
2018-03-23T21:50:24.969Z,101220.20
2018-03-23T21:52:52.735Z,101224.01
2018-03-23T21:55:20.422Z,101222.92
2018-03-23T21:57:48.145Z,101225.58
2018-03-23T22:00:15.873Z,101224.73
2018-03-23T22:02:43.655Z,101224.21
2018-03-23T22:05:11.353Z,101226.23
2018-03-23T22:07:39.072Z,101218.25
2018-03-23T22:10:06.771Z,101222.39
2018-03-23T22:12:34.502Z,101233.28
2018-03-23T22:15:02.186Z,101229.71
2018-03-23T22:17:29.911Z,101227.37
2018-03-23T22:19:57.684Z,101229.70
2018-03-23T22:22:25.437Z,101231.36
2018-03-23T22:24:53.135Z,101229.69
2018-03-23T22:27:20.856Z,101227.73
2018-03-23T22:29:48.532Z,101224.97
2018-03-23T22:32:16.261Z,101232.98
2018-03-23T22:34:44.785Z,101232.56
2018-03-23T22:37:12.516Z,101227.16
2018-03-23T22:39:40.225Z,101233.83
2018-03-23T22:42:07.930Z,101240.60
2018-03-23T22:44:35.590Z,101238.11
2018-03-23T22:47:03.318Z,101236.02
2018-03-23T22:49:31.004Z,101233.25
2018-03-23T22:51:58.722Z,101231.97
2018-03-23T22:54:26.413Z,101235.44
2018-03-23T22:56:54.162Z,101234.05
2018-03-23T22:59:21.835Z,101232.26
2018-03-23T23:01:49.559Z,101229.63
2018-03-23T23:04:17.261Z,101225.07
2018-03-23T23:06:45.021Z,101231.00
2018-03-23T23:09:12.781Z,101224.92
2018-03-23T23:11:40.476Z,101217.17
2018-03-23T23:14:08.223Z,101234.44
2018-03-23T23:16:35.962Z,101243.95
2018-03-23T23:19:03.690Z,101236.97
2018-03-23T23:21:31.434Z,101231.31
2018-03-23T23:23:59.199Z,101230.17
2018-03-23T23:26:26.897Z,101221.73
2018-03-23T23:28:54.668Z,101220.22
2018-03-23T23:31:22.375Z,101222.01
2018-03-23T23:33:50.144Z,101224.34
2018-03-23T23:36:17.838Z,101213.95
2018-03-23T23:38:45.556Z,101217.40
2018-03-23T23:41:13.235Z,101214.61
2018-03-23T23:43:40.987Z,101223.72
2018-03-23T23:46:08.700Z,101224.95
2018-03-23T23:48:36.415Z,101225.80
2018-03-23T23:51:04.130Z,101228.70
2018-03-23T23:53:31.864Z,101234.42
2018-03-23T23:55:59.559Z,101237.94
2018-03-23T23:58:27.268Z,101236.45
